createdAt,value
2017-07-28T00:01:05.556Z,6.85
2017-07-28T00:03:33.140Z,6.28
2017-07-28T00:06:00.697Z,6.10
2017-07-28T00:08:28.195Z,8.18
2017-07-28T00:10:55.773Z,6.18
2017-07-28T00:13:23.262Z,5.87
2017-07-28T00:15:50.775Z,5.97
2017-07-28T00:18:19.039Z,6.65
2017-07-28T00:20:47.464Z,7.15
2017-07-28T00:23:14.944Z,7.32
2017-07-28T00:25:42.434Z,6.35
2017-07-28T00:28:10.015Z,6.15
2017-07-28T00:30:37.499Z,6.07
2017-07-28T00:33:05.021Z,5.80
2017-07-28T00:35:33.279Z,5.72
2017-07-28T00:38:00.781Z,10.55
2017-07-28T00:40:28.333Z,8.55
2017-07-28T00:42:56.215Z,5.18
2017-07-28T00:45:23.714Z,5.87
2017-07-28T00:47:51.235Z,6.05
2017-07-28T00:50:18.749Z,5.62
2017-07-28T00:52:46.269Z,7.00
2017-07-28T00:55:13.842Z,11.05
2017-07-28T00:57:41.396Z,5.20
2017-07-28T01:00:08.910Z,5.90
2017-07-28T01:02:37.193Z,6.43
2017-07-28T01:05:04.702Z,6.10
2017-07-28T01:07:32.196Z,6.62
2017-07-28T01:09:59.713Z,6.47
2017-07-28T01:12:27.206Z,6.72
2017-07-28T01:14:54.721Z,6.72
2017-07-28T01:17:22.253Z,5.85
2017-07-28T01:19:49.776Z,7.03
2017-07-28T01:22:17.302Z,5.07
2017-07-28T01:24:44.817Z,5.50
2017-07-28T01:27:12.350Z,6.40
2017-07-28T01:29:39.874Z,8.18
2017-07-28T01:32:07.371Z,5.15
2017-07-28T01:34:34.874Z,7.07
2017-07-28T01:37:02.372Z,7.15
2017-07-28T01:39:29.861Z,6.53
2017-07-28T01:41:58.127Z,6.60
2017-07-28T01:44:25.626Z,6.62
2017-07-28T01:46:53.107Z,7.07
2017-07-28T01:49:20.611Z,6.82
2017-07-28T01:51:48.154Z,7.97
2017-07-28T01:54:15.646Z,6.53
2017-07-28T01:56:43.887Z,6.37
2017-07-28T01:59:11.423Z,6.07
2017-07-28T02:01:38.898Z,6.60
2017-07-28T02:04:06.377Z,6.50
2017-07-28T02:06:33.914Z,7.20
2017-07-28T02:09:01.423Z,6.55
2017-07-28T02:11:28.948Z,6.72
2017-07-28T02:13:56.439Z,9.38
2017-07-28T02:16:24.129Z,10.70
2017-07-28T02:18:51.639Z,12.32
2017-07-28T02:21:19.178Z,13.40
2017-07-28T02:23:46.682Z,10.95
2017-07-28T02:26:14.197Z,8.90
2017-07-28T02:28:41.685Z,9.77
2017-07-28T02:31:09.201Z,11.00
2017-07-28T02:33:36.693Z,26.92
2017-07-28T02:36:04.185Z,21.90
2017-07-28T02:38:32.044Z,18.12
2017-07-28T02:40:59.693Z,14.30
2017-07-28T02:43:27.199Z,14.68
2017-07-28T02:45:54.726Z,13.40
2017-07-28T02:48:22.239Z,11.80
2017-07-28T02:50:49.722Z,10.80
2017-07-28T02:53:17.226Z,10.55
2017-07-28T02:55:44.826Z,9.15
2017-07-28T02:58:12.308Z,10.05
2017-07-28T03:00:39.831Z,10.18
2017-07-28T03:03:07.325Z,10.88
2017-07-28T03:05:35.569Z,11.45
2017-07-28T03:08:03.053Z,12.70
2017-07-28T03:10:31.304Z,11.50
2017-07-28T03:12:58.792Z,10.82
2017-07-28T03:15:27.071Z,12.93
2017-07-28T03:17:55.338Z,10.48
2017-07-28T03:20:22.858Z,11.48
2017-07-28T03:22:50.460Z,11.60
2017-07-28T03:25:17.950Z,14.10
2017-07-28T03:27:45.503Z,15.27
2017-07-28T03:30:12.996Z,12.45
2017-07-28T03:32:40.541Z,12.13
2017-07-28T03:35:08.067Z,11.75
2017-07-28T03:37:35.550Z,10.80
2017-07-28T03:40:03.424Z,11.27
2017-07-28T03:42:30.954Z,11.35
2017-07-28T03:44:58.524Z,11.12
2017-07-28T03:47:26.048Z,10.95
2017-07-28T03:49:53.560Z,12.23
2017-07-28T03:52:21.086Z,12.37
2017-07-28T03:54:50.112Z,10.68
2017-07-28T03:57:17.601Z,11.30
2017-07-28T03:59:46.978Z,12.48
2017-07-28T04:02:14.502Z,11.98
2017-07-28T04:04:42.761Z,11.57
2017-07-28T04:07:10.276Z,14.35
2017-07-28T04:09:37.772Z,11.80
2017-07-28T04:12:05.293Z,13.82
2017-07-28T04:14:32.812Z,16.37
2017-07-28T04:17:01.079Z,14.77
2017-07-28T04:19:28.601Z,13.52
2017-07-28T04:21:56.105Z,14.80
2017-07-28T04:24:23.610Z,18.35
2017-07-28T04:26:51.093Z,11.90
2017-07-28T04:29:18.646Z,13.10
2017-07-28T04:31:46.173Z,20.02
2017-07-28T04:34:14.380Z,15.88
2017-07-28T04:36:41.891Z,13.43
2017-07-28T04:39:09.394Z,17.00
2017-07-28T04:41:37.122Z,19.02
2017-07-28T04:44:04.628Z,10.40
2017-07-28T04:46:32.145Z,13.98
2017-07-28T04:48:59.642Z,13.55
2017-07-28T04:51:27.171Z,16.77
2017-07-28T04:53:54.683Z,14.07
2017-07-28T04:56:22.182Z,18.98
2017-07-28T04:58:49.695Z,15.27
2017-07-28T05:01:17.241Z,15.10
2017-07-28T05:03:44.769Z,13.32
2017-07-28T05:06:12.275Z,14.38
2017-07-28T05:08:39.787Z,13.20
2017-07-28T05:11:07.310Z,13.20
2017-07-28T05:13:34.807Z,14.93
2017-07-28T05:16:02.294Z,11.75
2017-07-28T05:18:29.782Z,17.23
2017-07-28T05:20:58.078Z,13.27
2017-07-28T05:23:26.366Z,12.88
2017-07-28T05:25:53.869Z,14.90
2017-07-28T05:28:21.406Z,14.70
2017-07-28T05:30:48.918Z,15.93
2017-07-28T05:33:17.299Z,15.75
2017-07-28T05:35:44.835Z,15.70
2017-07-28T05:38:12.312Z,20.35
2017-07-28T05:40:40.602Z,15.65
2017-07-28T05:43:08.885Z,19.25
2017-07-28T05:45:36.410Z,15.40
2017-07-28T05:48:03.910Z,14.73
2017-07-28T05:50:31.417Z,12.73
2017-07-28T05:52:59.112Z,13.68
2017-07-28T05:55:27.390Z,17.77
2017-07-28T05:57:55.675Z,14.50
2017-07-28T06:00:23.934Z,16.20
2017-07-28T06:02:51.478Z,14.05
2017-07-28T06:05:19.002Z,11.75
2017-07-28T06:07:46.497Z,18.55
2017-07-28T06:10:14.030Z,17.80
2017-07-28T06:12:41.569Z,11.12
2017-07-28T06:15:09.066Z,11.43
2017-07-28T06:17:36.552Z,12.80
2017-07-28T06:20:04.058Z,14.52
2017-07-28T06:22:31.550Z,20.98
2017-07-28T06:24:59.063Z,9.32
2017-07-28T06:27:26.583Z,8.35
2017-07-28T06:29:54.078Z,15.45
2017-07-28T06:32:21.611Z,10.50
2017-07-28T06:34:49.901Z,11.88
2017-07-28T06:37:17.421Z,10.98
2017-07-28T06:39:44.947Z,8.27
2017-07-28T06:42:12.439Z,8.82
2017-07-28T06:44:39.961Z,12.70
2017-07-28T06:47:07.448Z,7.10
2017-07-28T06:49:34.941Z,8.60
2017-07-28T06:52:03.214Z,6.05
2017-07-28T06:54:31.475Z,6.25
2017-07-28T06:56:59.048Z,10.77
2017-07-28T06:59:26.587Z,8.77
2017-07-28T07:01:54.060Z,6.90
2017-07-28T07:04:21.681Z,7.78
2017-07-28T07:06:49.181Z,5.25
2017-07-28T07:09:16.662Z,7.20
2017-07-28T07:11:44.950Z,8.80
2017-07-28T07:14:12.474Z,5.65
2017-07-28T07:16:39.993Z,8.15
2017-07-28T07:19:07.503Z,5.12
2017-07-28T07:21:35.035Z,9.52
2017-07-28T07:24:02.526Z,8.63
2017-07-28T07:26:30.046Z,5.57
2017-07-28T07:28:57.551Z,8.55
2017-07-28T07:31:25.819Z,9.25
2017-07-28T07:33:54.391Z,11.10
2017-07-28T07:36:21.940Z,9.93
2017-07-28T07:38:49.452Z,7.15
2017-07-28T07:41:16.939Z,8.52
2017-07-28T07:43:44.426Z,7.80
2017-07-28T07:46:11.900Z,8.57
2017-07-28T07:48:39.414Z,10.30
2017-07-28T07:51:06.910Z,11.57
2017-07-28T07:53:35.218Z,6.37
2017-07-28T07:56:03.502Z,8.95
2017-07-28T07:58:31.135Z,10.10
2017-07-28T08:00:59.433Z,15.40
2017-07-28T08:03:27.383Z,4.70
2017-07-28T08:05:54.861Z,5.35
2017-07-28T08:08:22.380Z,4.05
2017-07-28T08:10:49.873Z,7.62
2017-07-28T08:13:17.393Z,4.00
2017-07-28T08:15:44.922Z,4.70
2017-07-28T08:18:12.440Z,13.15
2017-07-28T08:20:40.717Z,5.70
2017-07-28T08:23:08.960Z,6.75
2017-07-28T08:25:36.501Z,5.43
2017-07-28T08:28:04.005Z,6.65
2017-07-28T08:30:31.553Z,8.38
2017-07-28T08:32:59.042Z,6.05
2017-07-28T08:35:26.525Z,5.10
2017-07-28T08:37:54.022Z,5.40
2017-07-28T08:40:21.520Z,9.02
2017-07-28T08:42:49.016Z,8.70
2017-07-28T08:45:16.536Z,3.00
2017-07-28T08:47:44.789Z,5.55
2017-07-28T08:50:13.173Z,3.08
2017-07-28T08:52:40.679Z,5.00
2017-07-28T08:55:08.177Z,5.85
2017-07-28T08:57:37.059Z,7.60
2017-07-28T09:02:44.641Z,4.40
2017-07-28T09:05:12.387Z,9.82
2017-07-28T09:07:39.900Z,4.95
2017-07-28T09:10:07.422Z,5.00
2017-07-28T09:12:34.934Z,5.65
2017-07-28T09:15:02.451Z,4.55
2017-07-28T09:17:29.948Z,4.68
2017-07-28T09:19:57.469Z,6.03
2017-07-28T09:22:24.971Z,5.90
2017-07-28T09:24:52.471Z,3.20
2017-07-28T09:27:19.960Z,2.95
2017-07-28T09:29:47.444Z,6.07
2017-07-28T09:32:14.953Z,5.37
2017-07-28T09:34:42.436Z,3.33
2017-07-28T09:37:09.986Z,3.03
2017-07-28T09:39:37.482Z,3.03
2017-07-28T09:42:04.972Z,5.97
2017-07-28T09:44:32.612Z,2.97
2017-07-28T09:47:00.155Z,4.85
2017-07-28T09:49:27.768Z,4.68
2017-07-28T09:51:55.311Z,6.97
2017-07-28T09:54:22.810Z,5.78
2017-07-28T09:56:50.348Z,4.47
2017-07-28T09:59:17.864Z,2.67
2017-07-28T10:01:46.183Z,9.70
2017-07-28T10:04:13.690Z,4.70
2017-07-28T10:06:41.191Z,5.10
2017-07-28T10:09:08.680Z,7.93
2017-07-28T10:11:36.175Z,6.18
2017-07-28T10:14:04.455Z,7.05
2017-07-28T10:16:32.758Z,4.35
2017-07-28T10:19:00.722Z,4.20
2017-07-28T10:21:28.264Z,3.97
2017-07-28T10:23:56.544Z,2.65
2017-07-28T10:26:24.839Z,4.28
2017-07-28T10:28:52.381Z,3.67
2017-07-28T10:31:19.878Z,2.78
2017-07-28T10:33:47.393Z,3.25
2017-07-28T10:36:15.675Z,4.32
2017-07-28T10:38:43.946Z,2.90
2017-07-28T10:41:11.416Z,2.22
2017-07-28T10:43:39.703Z,3.83
2017-07-28T10:46:07.189Z,5.87
2017-07-28T10:48:34.772Z,9.45
2017-07-28T10:51:02.310Z,6.53
2017-07-28T10:53:29.815Z,6.20
2017-07-28T10:55:57.300Z,3.35
2017-07-28T10:58:24.802Z,3.75
2017-07-28T11:00:52.324Z,8.40
2017-07-28T11:03:19.844Z,7.35
2017-07-28T11:05:47.358Z,2.80
2017-07-28T11:08:15.852Z,5.18
2017-07-28T11:10:43.384Z,3.67
2017-07-28T11:13:10.918Z,2.90
2017-07-28T11:15:38.426Z,3.90
2017-07-28T11:18:05.944Z,4.80
2017-07-28T11:20:34.210Z,3.30
2017-07-28T11:23:02.503Z,4.28
2017-07-28T11:25:30.749Z,6.60
2017-07-28T11:27:58.261Z,5.78
2017-07-28T11:30:25.806Z,4.37
2017-07-28T11:32:53.296Z,4.03
2017-07-28T11:35:20.787Z,2.90
2017-07-28T11:37:48.297Z,8.07
2017-07-28T11:40:15.799Z,5.30
2017-07-28T11:42:43.287Z,4.32
2017-07-28T11:45:10.972Z,8.40
2017-07-28T11:47:38.468Z,6.22
2017-07-28T11:50:06.067Z,6.12
2017-07-28T11:52:33.569Z,3.87
2017-07-28T11:55:01.124Z,6.47
2017-07-28T11:57:28.611Z,5.30
2017-07-28T11:59:56.125Z,3.80
2017-07-28T12:02:23.640Z,11.25
2017-07-28T12:04:51.140Z,6.72
2017-07-28T12:07:18.619Z,5.45
2017-07-28T12:09:46.131Z,3.62
2017-07-28T12:12:13.658Z,3.03
2017-07-28T12:14:41.208Z,5.20
2017-07-28T12:17:08.706Z,8.65
2017-07-28T12:19:36.216Z,6.00
2017-07-28T12:22:03.783Z,4.18
2017-07-28T12:24:31.284Z,8.65
2017-07-28T12:26:58.773Z,8.60
2017-07-28T12:29:26.273Z,7.40
2017-07-28T12:31:53.779Z,8.43
2017-07-28T12:34:22.052Z,7.18
2017-07-28T12:36:50.374Z,7.85
2017-07-28T12:39:17.898Z,9.07
2017-07-28T12:41:47.165Z,4.45
2017-07-28T12:44:14.683Z,5.55
2017-07-28T12:46:42.195Z,7.85
2017-07-28T12:49:09.810Z,6.15
2017-07-28T12:51:37.310Z,9.65
2017-07-28T12:54:04.810Z,4.85
2017-07-28T12:56:32.286Z,7.32
2017-07-28T12:58:59.937Z,7.28
2017-07-28T13:01:27.435Z,5.25
2017-07-28T13:03:54.956Z,7.20
2017-07-28T13:06:22.473Z,6.82
2017-07-28T13:08:49.978Z,6.93
2017-07-28T13:11:17.481Z,10.02
2017-07-28T13:13:44.996Z,6.93
2017-07-28T13:16:12.519Z,5.97
2017-07-28T13:18:40.016Z,8.63
2017-07-28T13:21:07.524Z,9.45
2017-07-28T13:23:35.079Z,9.27
2017-07-28T13:26:02.576Z,9.00
2017-07-28T13:28:30.061Z,6.70
2017-07-28T13:30:57.581Z,8.80
2017-07-28T13:33:25.230Z,6.62
2017-07-28T13:35:52.726Z,7.68
2017-07-28T13:38:20.241Z,7.70
2017-07-28T13:40:47.793Z,6.87
2017-07-28T13:43:15.324Z,6.07
2017-07-28T13:45:42.830Z,6.85
2017-07-28T13:48:11.102Z,8.00
2017-07-28T13:50:39.373Z,6.03
2017-07-28T13:53:06.878Z,9.68
2017-07-28T13:55:34.386Z,7.15
2017-07-28T13:58:02.102Z,5.80
2017-07-28T14:00:29.586Z,11.85
2017-07-28T14:02:57.078Z,7.87
2017-07-28T14:05:25.352Z,5.12
2017-07-28T14:07:53.625Z,11.05
2017-07-28T14:10:21.908Z,6.28
2017-07-28T14:12:50.227Z,7.95
2017-07-28T14:15:17.717Z,5.07
2017-07-28T14:17:45.249Z,6.43
2017-07-28T14:20:12.771Z,7.43
2017-07-28T14:22:41.151Z,7.05
2017-07-28T14:25:08.698Z,10.30
2017-07-28T14:27:36.213Z,5.90
2017-07-28T14:30:03.969Z,5.15
2017-07-28T14:32:31.478Z,6.15
2017-07-28T14:34:59.010Z,4.90
2017-07-28T14:37:26.513Z,4.95
2017-07-28T14:39:54.023Z,9.52
2017-07-28T14:42:21.627Z,6.20
2017-07-28T14:44:49.132Z,3.97
2017-07-28T14:47:16.611Z,5.93
2017-07-28T14:49:44.156Z,6.53
2017-07-28T14:52:11.674Z,4.55
2017-07-28T14:54:39.165Z,6.05
2017-07-28T14:57:06.772Z,4.07
2017-07-28T14:59:34.391Z,3.30
2017-07-28T15:02:01.921Z,4.15
2017-07-28T15:04:29.410Z,2.90
2017-07-28T15:06:56.911Z,4.00
2017-07-28T15:09:24.474Z,2.75
2017-07-28T15:11:51.981Z,4.95
2017-07-28T15:14:19.484Z,1.98
2017-07-28T15:16:46.971Z,5.35
2017-07-28T15:19:15.252Z,4.80
2017-07-28T15:21:42.807Z,2.90
2017-07-28T15:24:10.300Z,2.47
2017-07-28T15:26:37.791Z,3.60
2017-07-28T15:29:05.413Z,2.87
2017-07-28T15:31:32.918Z,3.78
2017-07-28T15:34:00.437Z,3.80
2017-07-28T15:36:27.997Z,2.50
2017-07-28T15:38:55.486Z,3.37
2017-07-28T15:41:23.019Z,3.35
2017-07-28T15:43:50.526Z,6.22
2017-07-28T15:46:18.237Z,3.55
2017-07-28T15:48:45.748Z,2.67
2017-07-28T15:51:14.022Z,3.28
2017-07-28T15:53:41.529Z,3.20
2017-07-28T15:56:09.038Z,2.33
2017-07-28T15:58:36.545Z,5.15
2017-07-28T16:01:04.026Z,2.97
2017-07-28T16:03:31.527Z,5.90
2017-07-28T16:05:59.832Z,4.60
2017-07-28T16:08:27.368Z,7.35
2017-07-28T16:10:54.872Z,5.30
2017-07-28T16:13:22.382Z,3.15
2017-07-28T16:15:50.646Z,3.10
2017-07-28T16:18:18.171Z,2.40
2017-07-28T16:20:45.707Z,2.00
2017-07-28T16:23:13.230Z,3.05
2017-07-28T16:25:41.507Z,2.83
2017-07-28T16:28:09.829Z,3.70
2017-07-28T16:30:37.340Z,2.65
2017-07-28T16:33:04.898Z,3.05
2017-07-28T16:35:32.438Z,8.70
2017-07-28T16:38:00.172Z,2.58
2017-07-28T16:40:27.691Z,3.10
2017-07-28T16:42:56.112Z,3.05
2017-07-28T16:45:23.632Z,2.53
2017-07-28T16:47:51.884Z,4.28
2017-07-28T16:50:20.192Z,5.53
2017-07-28T16:52:47.709Z,3.22
2017-07-28T16:55:15.229Z,1.55
2017-07-28T16:57:42.752Z,1.80
2017-07-28T17:00:10.269Z,5.30
2017-07-28T17:02:37.756Z,5.62
2017-07-28T17:05:05.276Z,2.90
2017-07-28T17:07:32.777Z,3.47
2017-07-28T17:10:01.079Z,3.10
2017-07-28T17:12:29.349Z,5.03
2017-07-28T17:14:56.981Z,5.53
2017-07-28T17:17:24.557Z,4.68
2017-07-28T17:19:52.057Z,3.22
2017-07-28T17:22:19.546Z,3.97
2017-07-28T17:24:47.729Z,2.55
2017-07-28T17:27:15.254Z,3.37
2017-07-28T17:29:42.754Z,5.78
2017-07-28T17:32:10.611Z,3.58
2017-07-28T17:34:38.144Z,3.15
2017-07-28T17:37:05.641Z,2.70
2017-07-28T17:39:33.177Z,4.50
2017-07-28T17:42:00.710Z,5.68
2017-07-28T17:44:28.977Z,5.75
2017-07-28T17:46:57.420Z,4.10
2017-07-28T17:49:25.004Z,2.95
2017-07-28T17:51:52.567Z,8.23
2017-07-28T17:54:20.886Z,3.30
2017-07-28T17:56:48.417Z,9.70
2017-07-28T17:59:15.929Z,8.85
2017-07-28T18:01:43.468Z,5.87
2017-07-28T18:04:10.973Z,9.52
2017-07-28T18:06:38.497Z,7.18
2017-07-28T18:09:06.152Z,5.05
2017-07-28T18:11:33.713Z,4.22
2017-07-28T18:14:01.275Z,6.60
2017-07-28T18:16:28.887Z,5.50
2017-07-28T18:18:56.410Z,5.20
2017-07-28T18:21:23.938Z,4.03
2017-07-28T18:23:51.440Z,3.70
2017-07-28T18:26:18.978Z,4.20
2017-07-28T18:28:46.633Z,3.75
2017-07-28T18:31:14.147Z,3.87
2017-07-28T18:33:42.422Z,6.75
2017-07-28T18:36:10.717Z,5.35
2017-07-28T18:38:38.213Z,7.60
2017-07-28T18:41:05.821Z,6.85
2017-07-28T18:43:33.385Z,3.25
2017-07-28T18:46:01.109Z,5.22
2017-07-28T18:48:28.680Z,3.55
2017-07-28T18:50:56.402Z,4.97
2017-07-28T18:53:23.917Z,3.55
2017-07-28T18:55:51.446Z,4.43
2017-07-28T18:58:18.949Z,3.97
2017-07-28T19:00:46.497Z,3.75
2017-07-28T19:03:14.002Z,3.65
2017-07-28T19:05:41.564Z,4.00
2017-07-28T19:08:09.109Z,4.93
2017-07-28T19:10:37.300Z,4.07
2017-07-28T19:13:04.807Z,5.75
2017-07-28T19:15:32.377Z,4.85
2017-07-28T19:18:00.051Z,4.57
2017-07-28T19:20:27.576Z,5.45
2017-07-28T19:22:55.125Z,6.72
2017-07-28T19:25:22.649Z,4.85
2017-07-28T19:27:50.311Z,4.82
2017-07-28T19:30:17.904Z,8.13
2017-07-28T19:32:45.447Z,7.15
2017-07-28T19:35:13.046Z,6.85
2017-07-28T19:37:40.595Z,4.55
2017-07-28T19:40:08.178Z,4.90
2017-07-28T19:42:35.673Z,7.87
2017-07-28T19:45:03.219Z,6.22
2017-07-28T19:47:31.485Z,4.85
2017-07-28T19:49:59.806Z,9.25
2017-07-28T19:52:27.365Z,4.28
2017-07-28T19:54:54.853Z,4.72
2017-07-28T19:57:22.373Z,7.85
2017-07-28T19:59:49.875Z,5.43
2017-07-28T20:02:17.404Z,5.10
2017-07-28T20:04:44.914Z,6.68
2017-07-28T20:07:12.414Z,7.10
2017-07-28T20:09:39.926Z,6.90
2017-07-28T20:12:07.448Z,5.20
2017-07-28T20:14:34.950Z,5.43
2017-07-28T20:17:02.537Z,4.15
2017-07-28T20:19:30.065Z,4.40
2017-07-28T20:21:57.559Z,6.47
2017-07-28T20:24:25.284Z,6.18
2017-07-28T20:26:52.818Z,5.62
2017-07-28T20:29:20.327Z,9.25
2017-07-28T20:31:48.595Z,4.10
2017-07-28T20:34:16.865Z,6.68
2017-07-28T20:36:44.370Z,3.72
2017-07-28T20:39:11.882Z,5.30
2017-07-28T20:41:39.416Z,9.60
2017-07-28T20:44:06.942Z,4.35
2017-07-28T20:46:34.437Z,4.95
2017-07-28T20:49:01.991Z,4.05
2017-07-28T20:51:29.494Z,5.05
2017-07-28T20:53:57.751Z,7.60
2017-07-28T20:56:25.268Z,5.05
2017-07-28T20:58:52.789Z,3.83
2017-07-28T21:01:20.295Z,4.40
2017-07-28T21:03:47.827Z,6.60
2017-07-28T21:06:15.321Z,5.35
2017-07-28T21:08:42.892Z,5.60
2017-07-28T21:11:10.408Z,5.90
2017-07-28T21:14:00.693Z,10.45
2017-07-28T21:16:28.209Z,6.57
2017-07-28T21:18:55.700Z,6.25
2017-07-28T21:21:23.969Z,5.93
2017-07-28T21:23:52.250Z,5.10
2017-07-28T21:26:20.557Z,6.37
2017-07-28T21:28:48.066Z,6.82
2017-07-28T21:31:15.598Z,7.12
2017-07-28T21:33:43.150Z,8.98
2017-07-28T21:36:10.893Z,10.88
2017-07-28T21:38:38.405Z,12.02
2017-07-28T21:41:05.945Z,7.70
2017-07-28T21:43:33.494Z,10.23
2017-07-28T21:46:00.995Z,9.95
2017-07-28T21:48:28.716Z,10.10
2017-07-28T21:50:56.227Z,9.20
2017-07-28T21:53:24.528Z,12.88
2017-07-28T21:55:52.034Z,11.32
2017-07-28T21:58:19.586Z,11.50
2017-07-28T22:00:47.086Z,10.25
2017-07-28T22:03:14.583Z,9.63
2017-07-28T22:05:42.113Z,9.10
2017-07-28T22:08:09.658Z,9.50
2017-07-28T22:10:37.162Z,8.93
2017-07-28T22:13:04.645Z,9.02
2017-07-28T22:15:32.219Z,11.10
2017-07-28T22:17:59.712Z,29.00
2017-07-28T22:20:27.200Z,9.35
2017-07-28T22:22:54.687Z,9.15
2017-07-28T22:25:22.199Z,9.48
2017-07-28T22:27:49.687Z,11.60
2017-07-28T22:30:17.189Z,10.70
2017-07-28T22:32:44.681Z,9.07
2017-07-28T22:35:12.224Z,11.38
2017-07-28T22:37:39.730Z,10.07
2017-07-28T22:40:07.230Z,10.27
2017-07-28T22:42:34.745Z,10.75
2017-07-28T22:45:02.219Z,9.80
2017-07-28T22:47:29.740Z,59.88
2017-07-28T22:49:57.248Z,10.68
2017-07-28T22:52:24.762Z,8.88
2017-07-28T22:54:52.309Z,9.55
2017-07-28T22:57:19.818Z,10.23
2017-07-28T22:59:47.319Z,10.68
2017-07-28T23:02:14.834Z,11.05
2017-07-28T23:04:42.362Z,12.63
2017-07-28T23:07:09.852Z,9.40
2017-07-28T23:09:37.761Z,11.10
2017-07-28T23:12:05.328Z,10.85
2017-07-28T23:14:32.818Z,10.30
2017-07-28T23:17:00.314Z,13.98
2017-07-28T23:19:27.807Z,11.23
2017-07-28T23:21:55.333Z,10.45
2017-07-28T23:24:22.845Z,10.32
2017-07-28T23:26:50.401Z,9.73
2017-07-28T23:29:17.892Z,11.40
2017-07-28T23:31:45.394Z,12.90
2017-07-28T23:34:13.700Z,18.62
2017-07-28T23:36:41.265Z,15.35
2017-07-28T23:39:08.743Z,9.45
2017-07-28T23:41:36.273Z,12.77
2017-07-28T23:44:03.768Z,8.52
2017-07-28T23:46:31.282Z,10.27
2017-07-28T23:48:58.766Z,7.10
2017-07-28T23:51:26.266Z,11.15
2017-07-28T23:53:54.576Z,8.15
2017-07-28T23:56:22.182Z,7.47
2017-07-28T23:58:49.668Z,6.62
